createdAt,value
2018-05-13T00:00:22.552Z,95243.88
2018-05-13T00:02:50.876Z,95247.19
2018-05-13T00:05:19.276Z,95244.84
2018-05-13T00:07:47.601Z,95244.30
2018-05-13T00:10:15.928Z,95239.73
2018-05-13T00:12:44.304Z,95239.56
2018-05-13T00:15:12.615Z,95238.58
2018-05-13T00:17:40.948Z,95243.28
2018-05-13T00:20:09.250Z,95235.80
2018-05-13T00:22:37.586Z,95237.52
2018-05-13T00:25:06.042Z,95233.75
2018-05-13T00:27:34.414Z,95229.02
2018-05-13T00:30:02.697Z,95217.81
2018-05-13T00:32:31.030Z,95227.48
2018-05-13T00:34:59.337Z,95219.36
2018-05-13T00:37:27.669Z,95216.88
2018-05-13T00:39:55.974Z,95209.84
2018-05-13T00:42:24.321Z,95208.91
2018-05-13T00:44:52.624Z,95202.45
2018-05-13T00:47:20.962Z,95199.97
2018-05-13T00:49:49.264Z,95197.39
2018-05-13T00:52:17.603Z,95198.76
2018-05-13T00:54:55.852Z,95198.70
2018-05-13T00:57:24.257Z,95199.44
2018-05-13T00:59:52.553Z,95194.95
2018-05-13T01:02:20.889Z,95193.00
2018-05-13T01:04:49.261Z,95194.40
2018-05-13T01:07:17.645Z,95191.00
2018-05-13T01:09:46.369Z,95186.94
2018-05-13T01:12:14.668Z,95184.94
2018-05-13T01:14:43.085Z,95183.81
2018-05-13T01:17:11.470Z,95188.55
2018-05-13T01:19:39.883Z,95179.02
2018-05-13T01:22:08.182Z,95186.88
2018-05-13T01:24:36.588Z,95186.72
2018-05-13T01:27:04.900Z,95175.05
2018-05-13T01:29:33.224Z,95175.27
2018-05-13T01:32:01.674Z,95174.93
2018-05-13T01:34:30.109Z,95169.84
2018-05-13T01:36:58.481Z,95167.53
2018-05-13T01:39:28.152Z,95164.00
2018-05-13T01:41:56.646Z,95162.27
2018-05-13T01:44:24.982Z,95158.66
2018-05-13T01:46:53.428Z,95164.48
2018-05-13T01:49:22.793Z,95158.53
2018-05-13T01:51:51.296Z,95159.92
2018-05-13T01:54:19.593Z,95159.30
2018-05-13T01:56:47.957Z,95159.84
2018-05-13T01:59:16.277Z,95163.81
2018-05-13T02:01:44.657Z,95156.05
2018-05-13T02:04:13.296Z,95158.74
2018-05-13T02:06:41.701Z,95154.16
2018-05-13T02:09:10.065Z,95151.45
2018-05-13T02:11:38.440Z,95158.22
2018-05-13T02:14:06.934Z,95148.28
2018-05-13T02:16:35.305Z,95152.41
2018-05-13T02:19:03.940Z,95151.13
2018-05-13T02:21:32.380Z,95144.25
2018-05-13T02:24:01.010Z,95139.16
2018-05-13T02:26:29.627Z,95138.60
2018-05-13T02:28:58.016Z,95137.42
2018-05-13T02:31:26.445Z,95138.95
2018-05-13T02:33:55.094Z,95136.97
2018-05-13T02:36:23.478Z,95142.23
2018-05-13T02:38:51.781Z,95136.74
2018-05-13T02:41:20.126Z,95139.91
2018-05-13T02:43:48.453Z,95147.57
2018-05-13T02:46:16.901Z,95148.95
2018-05-13T02:48:45.246Z,95149.22
2018-05-13T02:51:13.705Z,95145.52
2018-05-13T02:53:42.091Z,95145.16
2018-05-13T02:56:10.410Z,95148.67
2018-05-13T02:58:38.926Z,95145.75
2018-05-13T03:01:07.377Z,95154.20
2018-05-13T03:03:35.749Z,95146.94
2018-05-13T03:06:04.053Z,95155.75
2018-05-13T03:08:32.400Z,95150.00
2018-05-13T03:11:00.712Z,95147.92
2018-05-13T03:13:29.140Z,95151.76
2018-05-13T03:15:57.448Z,95156.52
2018-05-13T03:18:25.962Z,95160.96
2018-05-13T03:20:54.533Z,95153.01
2018-05-13T03:23:23.013Z,95151.88
2018-05-13T03:25:51.403Z,95158.56
2018-05-13T03:28:19.807Z,95150.84
2018-05-13T03:30:48.197Z,95156.05
2018-05-13T03:33:16.508Z,95165.34
2018-05-13T03:35:44.833Z,95163.05
2018-05-13T03:38:13.129Z,95156.52
2018-05-13T03:40:41.469Z,95160.14
2018-05-13T03:43:09.856Z,95152.66
2018-05-13T03:45:38.254Z,95156.69
2018-05-13T03:48:06.577Z,95154.91
2018-05-13T03:50:35.006Z,95155.17
2018-05-13T03:53:03.320Z,95161.58
2018-05-13T03:55:31.656Z,95169.98
2018-05-13T03:57:59.967Z,95166.23
2018-05-13T04:00:28.309Z,95176.03
2018-05-13T04:02:56.747Z,95181.55
2018-05-13T04:05:25.936Z,95183.52
2018-05-13T04:11:10.989Z,95186.52
2018-05-13T04:13:51.128Z,95181.32
2018-05-13T04:16:19.454Z,95185.86
2018-05-13T04:18:47.797Z,95194.13
2018-05-13T04:21:16.141Z,95187.67
2018-05-13T04:23:44.557Z,95190.38
2018-05-13T04:26:12.913Z,95195.39
2018-05-13T04:28:41.223Z,95194.09
2018-05-13T04:31:09.523Z,95186.28
2018-05-13T04:33:37.865Z,95182.19
2018-05-13T04:36:06.211Z,95187.12
2018-05-13T04:38:34.623Z,95190.75
2018-05-13T04:41:02.951Z,95198.25
2018-05-13T04:43:31.377Z,95196.87
2018-05-13T04:45:59.701Z,95205.81
2018-05-13T04:48:28.040Z,95208.88
2018-05-13T04:50:56.358Z,95202.84
2018-05-13T04:53:24.727Z,95203.60
2018-05-13T04:55:53.018Z,95214.67
2018-05-13T04:58:21.397Z,95203.84
2018-05-13T05:00:49.709Z,95201.98
2018-05-13T05:03:18.041Z,95202.81
2018-05-13T05:05:46.353Z,95207.49
2018-05-13T05:08:14.693Z,95203.90
2018-05-13T05:10:43.026Z,95208.55
2018-05-13T05:13:11.364Z,95206.52
2018-05-13T05:15:39.697Z,95210.35
2018-05-13T05:18:08.044Z,95212.00
2018-05-13T05:20:36.440Z,95214.78
2018-05-13T05:23:04.816Z,95212.58
2018-05-13T05:25:33.202Z,95213.13
2018-05-13T05:28:01.578Z,95216.80
2018-05-13T05:30:29.955Z,95213.63
2018-05-13T05:32:58.297Z,95218.17
2018-05-13T05:35:26.753Z,95215.53
2018-05-13T05:37:55.053Z,95205.00
2018-05-13T05:40:23.378Z,95205.52
2018-05-13T05:42:51.743Z,95204.48
2018-05-13T05:45:20.081Z,95201.92
2018-05-13T05:47:48.398Z,95204.08
2018-05-13T05:50:16.738Z,95204.98
2018-05-13T05:52:45.030Z,95197.25
2018-05-13T05:55:13.356Z,95205.45
2018-05-13T05:57:41.664Z,95203.52
2018-05-13T06:00:10.078Z,95209.88
2018-05-13T06:02:38.460Z,95201.42
2018-05-13T06:05:06.840Z,95210.92
2018-05-13T06:07:35.148Z,95210.66
2018-05-13T06:10:03.492Z,95210.94
2018-05-13T06:12:31.872Z,95210.12
2018-05-13T06:15:00.290Z,95208.38
2018-05-13T06:17:28.629Z,95205.56
2018-05-13T06:19:57.047Z,95207.27
2018-05-13T06:22:25.389Z,95198.44
2018-05-13T06:24:53.701Z,95194.66
2018-05-13T06:27:22.037Z,95199.42
2018-05-13T06:29:50.417Z,95198.51
2018-05-13T06:32:18.789Z,95203.05
2018-05-13T06:34:47.097Z,95198.16
2018-05-13T06:37:15.445Z,95199.10
2018-05-13T06:39:43.885Z,95203.50
2018-05-13T06:42:12.169Z,95197.42
2018-05-13T06:44:40.509Z,95192.69
2018-05-13T06:47:08.865Z,95196.20
2018-05-13T06:49:37.171Z,95198.91
2018-05-13T06:52:05.511Z,95199.28
2018-05-13T06:54:33.824Z,95205.16
2018-05-13T06:57:02.169Z,95205.46
2018-05-13T06:59:30.482Z,95204.88
2018-05-13T07:01:58.834Z,95200.80
2018-05-13T07:04:27.197Z,95191.00
2018-05-13T07:06:55.529Z,95195.20
2018-05-13T07:09:23.858Z,95188.34
2018-05-13T07:11:52.244Z,95179.89
2018-05-13T07:14:20.614Z,95184.44
2018-05-13T07:16:48.989Z,95181.88
2018-05-13T07:19:17.354Z,95180.91
2018-05-13T07:21:45.749Z,95186.39
2018-05-13T07:24:14.120Z,95186.98
2018-05-13T07:26:48.280Z,95183.05
2018-05-13T07:29:16.612Z,95180.33
2018-05-13T07:31:44.922Z,95176.39
2018-05-13T07:34:13.249Z,95178.16
2018-05-13T07:36:41.569Z,95175.23
2018-05-13T07:39:09.921Z,95173.24
2018-05-13T07:41:38.232Z,95166.00
2018-05-13T07:44:06.581Z,95162.05
2018-05-13T07:46:34.894Z,95160.11
2018-05-13T07:49:03.237Z,95162.84
2018-05-13T07:51:31.550Z,95153.39
2018-05-13T07:53:59.996Z,95164.97
2018-05-13T07:56:28.324Z,95165.55
2018-05-13T07:58:56.758Z,95166.14
2018-05-13T08:01:25.143Z,95160.81
2018-05-13T08:03:53.477Z,95165.34
2018-05-13T08:06:21.819Z,95161.00
2018-05-13T08:08:50.162Z,95168.13
2018-05-13T08:11:18.475Z,95159.84
2018-05-13T08:13:46.881Z,95162.66
2018-05-13T08:16:15.191Z,95167.04
2018-05-13T08:18:43.522Z,95156.53
2018-05-13T08:21:11.907Z,95155.75
2018-05-13T08:23:40.226Z,95158.00
2018-05-13T08:26:08.578Z,95149.38
2018-05-13T08:28:36.894Z,95153.91
2018-05-13T08:31:05.235Z,95149.72
2018-05-13T08:33:33.558Z,95149.27
2018-05-13T08:36:01.938Z,95147.11
2018-05-13T08:38:30.246Z,95144.04
2018-05-13T08:40:58.572Z,95143.29
2018-05-13T08:43:26.907Z,95143.34
2018-05-13T08:45:55.245Z,95138.07
2018-05-13T08:48:23.639Z,95128.34
2018-05-13T08:50:51.901Z,95119.95
2018-05-13T08:53:20.237Z,95117.46
2018-05-13T08:55:48.572Z,95120.14
2018-05-13T08:58:16.898Z,95121.41
2018-05-13T09:00:45.239Z,95120.80
2018-05-13T09:03:13.553Z,95116.14
2018-05-13T09:05:41.898Z,95116.49
2018-05-13T09:08:10.248Z,95111.78
2018-05-13T09:10:38.657Z,95114.25
2018-05-13T09:13:06.993Z,95112.92
2018-05-13T09:15:35.314Z,95108.13
2018-05-13T09:18:03.634Z,95100.45
2018-05-13T09:20:32.089Z,95105.23
2018-05-13T09:23:00.392Z,95107.80
2018-05-13T09:25:28.761Z,95102.03
2018-05-13T09:27:57.147Z,95104.12
2018-05-13T09:30:25.464Z,95099.55
2018-05-13T09:32:53.816Z,95093.75
2018-05-13T09:35:22.097Z,95095.62
2018-05-13T09:37:50.445Z,95097.05
2018-05-13T09:40:19.432Z,95088.88
2018-05-13T09:42:47.777Z,95092.95
2018-05-13T09:45:16.210Z,95089.39
2018-05-13T09:47:44.667Z,95092.03
2018-05-13T09:50:13.052Z,95093.41
2018-05-13T09:52:41.364Z,95086.72
2018-05-13T09:55:09.692Z,95076.37
2018-05-13T09:57:38.130Z,95074.91
2018-05-13T10:00:06.372Z,95077.39
2018-05-13T10:02:34.772Z,95075.88
2018-05-13T10:05:03.109Z,95076.83
2018-05-13T10:07:31.441Z,95070.70
2018-05-13T10:09:59.846Z,95070.53
2018-05-13T10:12:28.095Z,95066.95
2018-05-13T10:14:56.437Z,95067.45
2018-05-13T10:17:24.811Z,95064.22
2018-05-13T10:19:53.192Z,95062.22
2018-05-13T10:22:21.566Z,95062.61
2018-05-13T10:24:49.896Z,95067.67
2018-05-13T10:27:18.232Z,95063.82
2018-05-13T10:29:46.693Z,95055.74
2018-05-13T10:32:15.073Z,95052.78
2018-05-13T10:34:43.401Z,95054.38
2018-05-13T10:37:11.732Z,95052.05
2018-05-13T10:39:40.058Z,95052.63
2018-05-13T10:42:08.426Z,95046.49
2018-05-13T10:44:36.718Z,95053.07
2018-05-13T10:47:05.058Z,95045.82
2018-05-13T10:49:33.409Z,95042.48
2018-05-13T10:52:01.838Z,95041.13
2018-05-13T10:54:30.139Z,95040.44
2018-05-13T10:56:58.557Z,95038.77
2018-05-13T10:59:26.932Z,95037.60
2018-05-13T11:01:55.282Z,95033.23
2018-05-13T11:04:23.593Z,95038.39
2018-05-13T11:06:51.924Z,95029.86
2018-05-13T11:09:20.338Z,95024.84
2018-05-13T11:11:48.684Z,95019.91
2018-05-13T11:14:17.006Z,95012.29
2018-05-13T11:16:45.318Z,95015.11
2018-05-13T11:19:13.856Z,95015.38
2018-05-13T11:21:42.240Z,95007.33
2018-05-13T11:24:10.574Z,95012.98
2018-05-13T11:26:38.993Z,95003.50
2018-05-13T11:29:07.379Z,94995.31
2018-05-13T11:31:35.751Z,94984.36
2018-05-13T11:34:04.131Z,94988.94
2018-05-13T11:36:32.445Z,94983.75
2018-05-13T11:39:00.787Z,94975.45
2018-05-13T11:41:29.101Z,94971.34
2018-05-13T11:43:57.536Z,94974.66
2018-05-13T11:46:25.857Z,94966.48
2018-05-13T11:48:54.196Z,94962.80
2018-05-13T11:51:22.574Z,94949.41
2018-05-13T11:53:50.948Z,94941.78
2018-05-13T11:56:19.271Z,94935.80
2018-05-13T11:58:47.610Z,94931.11
2018-05-13T12:01:15.926Z,94933.35
2018-05-13T12:03:44.238Z,94934.97
2018-05-13T12:06:12.582Z,94922.49
2018-05-13T12:08:40.899Z,94934.72
2018-05-13T12:11:09.290Z,94921.02
2018-05-13T12:13:37.598Z,94926.61
2018-05-13T12:16:05.933Z,94915.52
2018-05-13T12:18:34.369Z,94915.94
2018-05-13T12:21:02.779Z,94905.72
2018-05-13T12:23:31.081Z,94901.30
2018-05-13T12:25:59.472Z,94901.26
2018-05-13T12:28:27.845Z,94888.47
2018-05-13T12:30:56.237Z,94879.48
2018-05-13T12:33:24.542Z,94880.47
2018-05-13T12:35:52.892Z,94875.66
2018-05-13T12:38:21.219Z,94873.37
2018-05-13T12:40:49.618Z,94866.78
2018-05-13T12:43:17.933Z,94861.30
2018-05-13T12:45:46.254Z,94853.47
2018-05-13T12:48:14.606Z,94855.16
2018-05-13T12:50:42.905Z,94848.02
2018-05-13T12:53:11.355Z,94846.70
2018-05-13T12:55:39.679Z,94847.94
2018-05-13T12:58:08.012Z,94846.68
2018-05-13T13:00:36.337Z,94843.77
2018-05-13T13:03:04.676Z,94834.16
2018-05-13T13:05:32.984Z,94826.71
2018-05-13T13:08:01.316Z,94824.86
2018-05-13T13:10:29.656Z,94819.89
2018-05-13T13:12:58.021Z,94815.27
2018-05-13T13:15:26.408Z,94817.00
2018-05-13T13:17:54.829Z,94810.93
2018-05-13T13:20:23.117Z,94809.31
2018-05-13T13:22:51.477Z,94809.64
2018-05-13T13:25:19.799Z,94805.44
2018-05-13T13:27:48.195Z,94787.11
2018-05-13T13:30:16.506Z,94792.98
2018-05-13T13:32:44.855Z,94791.67
2018-05-13T13:35:13.169Z,94788.59
2018-05-13T13:37:41.560Z,94776.81
2018-05-13T13:40:09.925Z,94772.14
2018-05-13T13:42:38.216Z,94776.52
2018-05-13T13:45:06.644Z,94769.34
2018-05-13T13:47:34.954Z,94761.16
2018-05-13T13:50:03.396Z,94760.22
2018-05-13T13:52:31.784Z,94758.84
2018-05-13T13:55:00.152Z,94753.42
2018-05-13T13:57:29.262Z,94746.64
2018-05-13T13:59:57.627Z,94753.79
2018-05-13T14:02:26.008Z,94748.14
2018-05-13T14:04:54.382Z,94746.73
2018-05-13T14:07:22.694Z,94739.97
2018-05-13T14:09:51.042Z,94742.87
2018-05-13T14:12:19.349Z,94740.83
2018-05-13T14:14:47.697Z,94739.80
2018-05-13T14:17:16.117Z,94737.71
2018-05-13T14:19:44.457Z,94731.48
2018-05-13T14:22:12.781Z,94730.20
2018-05-13T14:24:41.110Z,94723.40
2018-05-13T14:27:09.488Z,94722.20
2018-05-13T14:29:37.817Z,94720.96
2018-05-13T14:32:06.236Z,94716.77
2018-05-13T14:34:34.587Z,94712.05
2018-05-13T14:37:02.988Z,94711.23
2018-05-13T14:39:31.310Z,94714.59
2018-05-13T14:41:59.749Z,94721.64
2018-05-13T14:44:28.134Z,94713.50
2018-05-13T14:46:56.505Z,94715.17
2018-05-13T14:49:24.811Z,94715.33
2018-05-13T14:51:53.141Z,94715.50
2018-05-13T14:54:21.481Z,94708.30
2018-05-13T14:56:49.837Z,94713.79
2018-05-13T14:59:18.193Z,94717.58
2018-05-13T15:01:46.529Z,94713.45
2018-05-13T15:04:14.906Z,94718.89
2018-05-13T15:06:43.237Z,94713.80
2018-05-13T15:09:11.611Z,94713.63
2018-05-13T15:11:40.022Z,94711.33
2018-05-13T15:14:08.375Z,94713.03
2018-05-13T15:16:36.853Z,94711.34
2018-05-13T15:19:05.121Z,94720.52
2018-05-13T15:21:33.486Z,94736.81
2018-05-13T15:24:01.830Z,94765.61
